Time;durP1;ratioP1;P1;durP2;ratioP2;P2;SDS_P1;SDS_P2;PMS_P1;PMS_P2;Temp;Humidity;BMP_temperature;BMP_pressure;BME280_temperature;BME280_humidity;BME280_pressure;Samples;Min_cycle;Max_cycle;Signal;HPM_P1;HPM_P2
2022/01/26 00:06:28;;;;;;;39.42;31.30;;;26.10;99.90;;;;;;5034345;28;20071;-68
2022/01/26 00:08:54;;;;;;;49.17;31.90;;;26.10;99.90;;;;;;5034889;28;20022;-67
2022/01/26 00:11:21;;;;;;;44.85;32.97;;;26.00;99.90;;;;;;5034587;28;20037;-67
2022/01/26 00:13:47;;;;;;;40.33;30.15;;;26.00;99.90;;;;;;5034532;28;20030;-70
2022/01/26 00:16:25;;;;;;;99.95;78.88;;;26.00;99.90;;;;;;5034212;28;20403;-70
2022/01/26 00:18:55;;;;;;;131.55;101.65;;;26.10;99.90;;;;;;5034615;28;20052;-69
2022/01/26 00:21:30;;;;;;;94.97;68.38;;;26.10;99.90;;;;;;5034047;28;20044;-71
2022/01/26 00:39:09;;;;;;;45.00;31.63;;;26.30;99.90;;;;;;5031419;28;20024;-68
2022/01/26 00:41:37;;;;;;;49.10;32.30;;;26.30;99.90;;;;;;5033792;28;20041;-68
2022/01/26 00:44:06;;;;;;;48.45;32.47;;;26.30;99.90;;;;;;5033414;28;20092;-68
2022/01/26 00:46:34;;;;;;;37.33;28.10;;;26.30;99.90;;;;;;5033960;28;20072;-69
2022/01/26 00:49:01;;;;;;;43.67;30.50;;;26.30;99.90;;;;;;5033710;28;20057;-68
2022/01/26 00:51:27;;;;;;;35.88;29.05;;;26.30;99.90;;;;;;5033684;28;20029;-69
2022/01/26 00:54:06;;;;;;;36.03;26.58;;;26.30;99.90;;;;;;5040984;28;20028;-69
2022/01/26 00:56:33;;;;;;;48.17;31.85;;;26.20;99.90;;;;;;5033049;28;20034;-68
2022/01/26 00:59:00;;;;;;;42.50;31.40;;;26.30;99.90;;;;;;5034318;28;20553;-69
2022/01/26 01:01:27;;;;;;;48.88;29.92;;;26.30;99.90;;;;;;5033679;28;20378;-69
2022/01/26 01:03:54;;;;;;;43.53;31.48;;;26.40;99.90;;;;;;5033911;28;20459;-69
2022/01/26 01:06:26;;;;;;;40.53;27.35;;;26.40;99.90;;;;;;5033770;28;20033;-70
2022/01/26 01:08:56;;;;;;;38.63;28.70;;;26.50;99.90;;;;;;5033416;28;20014;-70
2022/01/26 01:11:23;;;;;;;34.22;23.08;;;26.50;99.90;;;;;;5027763;28;20034;-68
2022/01/26 01:13:50;;;;;;;74.35;54.22;;;26.50;99.90;;;;;;5033726;28;20037;-69
2022/01/26 01:16:21;;;;;;;71.40;45.05;;;26.60;99.90;;;;;;5033370;28;20110;-69
2022/01/26 01:19:10;;;;;;;72.63;48.57;;;26.70;99.90;;;;;;5033419;28;20075;-69
2022/01/26 01:24:36;;;;;;;73.95;51.60;;;26.80;99.90;;;;;;5033225;28;20017;-69
2022/01/26 01:27:18;;;;;;;56.50;37.85;;;26.80;99.90;;;;;;5033204;28;20025;-69
2022/01/26 01:29:57;;;;;;;43.75;30.90;;;26.90;99.90;;;;;;5033433;28;20032;-69
2022/01/26 01:32:34;;;;;;;80.80;59.95;;;27.00;99.90;;;;;;5033212;28;20088;-68
2022/01/26 01:35:01;;;;;;;74.45;50.58;;;27.00;99.90;;;;;;5032320;28;20549;-68
2022/01/26 01:37:27;;;;;;;58.13;45.60;;;26.90;99.90;;;;;;5033160;28;20474;-68
2022/01/26 01:39:54;;;;;;;34.75;22.15;;;26.90;99.90;;;;;;5032839;28;20083;-69
2022/01/26 01:42:21;;;;;;;31.98;22.85;;;27.00;99.90;;;;;;5033186;28;20053;-69
2022/01/26 01:44:47;;;;;;;35.03;22.95;;;27.10;99.90;;;;;;5033325;28;20079;-71
2022/01/26 01:47:14;;;;;;;40.45;27.00;;;27.20;99.90;;;;;;5032721;28;20026;-69
2022/01/26 01:49:40;;;;;;;28.67;21.85;;;27.20;99.90;;;;;;5033258;28;20055;-70
2022/01/26 01:52:13;;;;;;;33.55;24.23;;;27.20;99.90;;;;;;5033015;28;20501;-70
2022/01/26 01:54:41;;;;;;;38.38;22.67;;;27.30;99.90;;;;;;5033051;28;20071;-70
2022/01/26 01:57:08;;;;;;;23.33;16.35;;;27.30;99.90;;;;;;5033037;28;20037;-70
2022/01/26 01:59:35;;;;;;;24.08;15.88;;;27.20;99.90;;;;;;5033099;28;20033;-70
2022/01/26 02:02:02;;;;;;;34.40;22.13;;;27.30;99.90;;;;;;5032198;28;20505;-69
2022/01/26 02:04:29;;;;;;;37.20;25.70;;;27.40;99.90;;;;;;5033514;28;20025;-70
2022/01/26 02:06:56;;;;;;;36.65;27.33;;;27.50;99.90;;;;;;5032947;28;20075;-70
2022/01/26 02:09:23;;;;;;;29.08;21.40;;;27.50;99.90;;;;;;5033020;28;20024;-69
2022/01/26 02:11:55;;;;;;;62.50;45.08;;;27.50;99.90;;;;;;5032943;28;20018;-71
2022/01/26 02:14:31;;;;;;;27.95;16.77;;;27.50;99.90;;;;;;5030892;28;20363;-71
2022/01/26 02:17:12;;;;;;;70.78;45.75;;;27.60;99.90;;;;;;5033192;28;20097;-69
2022/01/26 02:56:02;;;;;;;20.33;12.20;;;28.00;99.90;;;;;;5035615;28;20030;-72
2022/01/26 03:03:39;;;;;;;28.13;15.25;;;28.00;99.90;;;;;;5035861;28;20022;-70
2022/01/26 03:06:11;;;;;;;18.38;11.55;;;28.10;99.90;;;;;;5035667;28;20382;-71
2022/01/26 03:08:43;;;;;;;16.73;9.30;;;28.10;99.90;;;;;;5035946;28;20029;-71
2022/01/26 03:11:12;;;;;;;15.07;10.45;;;28.10;99.90;;;;;;5035665;28;20083;-71
2022/01/26 03:13:52;;;;;;;20.52;11.60;;;28.10;99.90;;;;;;5035328;28;20026;-71
2022/01/26 03:16:28;;;;;;;15.02;10.45;;;28.20;99.90;;;;;;5035262;28;20351;-71
2022/01/26 03:21:29;;;;;;;34.20;16.85;;;28.40;99.90;;;;;;5035404;28;20033;-70
2022/01/26 03:32:39;;;;;;;24.77;14.65;;;28.60;99.90;;;;;;5034983;28;20413;-72
2022/01/26 03:34:52;;;;;;;12.45;10.55;;;28.60;99.90;;;;;;5033985;28;20033;-71
2022/01/26 03:37:21;;;;;;;12.77;9.27;;;28.70;99.90;;;;;;5035221;28;20044;-72
2022/01/26 03:39:50;;;;;;;15.00;9.00;;;28.80;99.90;;;;;;5030082;28;20129;-71
2022/01/26 03:42:17;;;;;;;16.27;9.60;;;28.90;99.90;;;;;;5031945;28;20037;-70
2022/01/26 03:44:43;;;;;;;17.45;10.63;;;28.90;99.90;;;;;;5032207;28;20030;-70
2022/01/26 03:47:11;;;;;;;11.85;9.38;;;28.90;99.90;;;;;;5034609;28;20509;-68
2022/01/26 03:49:38;;;;;;;23.00;13.70;;;29.10;99.90;;;;;;5034489;28;20041;-67
2022/01/26 03:52:05;;;;;;;14.05;8.38;;;29.10;99.90;;;;;;5034025;28;20022;-69
2022/01/26 03:54:33;;;;;;;17.85;9.70;;;29.20;99.90;;;;;;5034458;28;20034;-67
2022/01/26 03:56:59;;;;;;;38.70;30.52;;;29.20;99.90;;;;;;5032945;28;20108;-69
2022/01/26 03:59:26;;;;;;;17.25;12.98;;;29.30;99.90;;;;;;5034192;28;20103;-68
2022/01/26 04:01:53;;;;;;;34.15;23.17;;;29.30;99.90;;;;;;5034451;28;20026;-68
2022/01/26 04:04:19;;;;;;;210.55;150.48;;;29.40;99.90;;;;;;5027413;28;20049;-69
2022/01/26 04:06:47;;;;;;;22.80;14.80;;;29.40;99.90;;;;;;5034945;28;20025;-69
2022/01/26 04:09:15;;;;;;;22.92;14.75;;;29.40;99.90;;;;;;5034950;28;20026;-69
2022/01/26 04:11:46;;;;;;;151.20;127.25;;;29.40;99.90;;;;;;5031487;28;20352;-70
2022/01/26 04:14:17;;;;;;;23.00;12.80;;;29.50;99.90;;;;;;5034444;28;20030;-69
2022/01/26 04:16:44;;;;;;;15.65;9.82;;;29.50;99.90;;;;;;5020777;28;20030;-69
2022/01/26 04:19:11;;;;;;;21.63;11.50;;;29.60;99.90;;;;;;5029080;28;20457;-68
2022/01/26 04:24:15;;;;;;;25.10;14.88;;;29.70;99.90;;;;;;5032515;28;20100;-68
2022/01/26 04:29:15;;;;;;;15.75;12.25;;;29.80;99.90;;;;;;5030011;28;20052;-71
2022/01/26 04:31:42;;;;;;;18.48;12.30;;;29.90;99.90;;;;;;5031431;28;20105;-71
2022/01/26 04:34:09;;;;;;;16.52;11.45;;;29.80;99.90;;;;;;5031739;28;20422;-71
2022/01/26 04:36:50;;;;;;;15.02;11.15;;;29.80;99.90;;;;;;5032786;28;20493;-69
2022/01/26 04:39:22;;;;;;;16.80;11.27;;;29.80;99.90;;;;;;5031181;28;20044;-72
2022/01/26 04:42:14;;;;;;;14.50;11.02;;;29.90;99.90;;;;;;5031890;28;20076;-71
2022/01/26 04:44:45;;;;;;;13.23;9.85;;;30.00;99.90;;;;;;5031614;28;20100;-70
2022/01/26 04:47:12;;;;;;;24.90;10.90;;;30.00;99.90;;;;;;5031071;28;20040;-73
2022/01/26 04:49:38;;;;;;;13.27;9.48;;;30.00;99.90;;;;;;5034316;28;20017;-71
2022/01/26 04:52:05;;;;;;;19.00;10.18;;;30.10;99.90;;;;;;5033764;28;20021;-71
2022/01/26 04:54:32;;;;;;;22.48;11.05;;;30.10;99.90;;;;;;5034166;28;20021;-71
2022/01/26 04:56:58;;;;;;;28.67;14.20;;;30.00;99.90;;;;;;5033240;28;20517;-71
2022/01/26 04:59:25;;;;;;;20.17;13.60;;;30.10;99.90;;;;;;5033796;28;20032;-71
2022/01/26 05:01:51;;;;;;;18.85;13.88;;;30.10;99.90;;;;;;5033194;28;20120;-72
2022/01/26 05:04:18;;;;;;;17.35;10.48;;;30.30;99.90;;;;;;5033230;28;20021;-72
2022/01/26 05:06:44;;;;;;;14.40;9.82;;;30.30;99.90;;;;;;5031992;28;20076;-71
2022/01/26 05:09:11;;;;;;;17.10;8.95;;;30.30;99.90;;;;;;5032215;28;20021;-70
2022/01/26 05:11:41;;;;;;;21.02;9.23;;;30.30;99.90;;;;;;5032580;28;20033;-71
2022/01/26 05:14:07;;;;;;;16.45;8.88;;;30.40;99.90;;;;;;5031922;28;20091;-72
2022/01/26 05:16:35;;;;;;;9.05;7.15;;;30.40;99.90;;;;;;5029984;28;20028;-76
2022/01/26 05:19:02;;;;;;;14.63;9.20;;;30.60;99.90;;;;;;5029952;28;20589;-73
2022/01/26 05:21:29;;;;;;;11.43;8.45;;;30.60;99.90;;;;;;5052030;22;20056;-74
2022/01/26 05:23:56;;;;;;;12.88;7.15;;;30.60;99.90;;;;;;5052980;28;20029;-73
2022/01/26 05:26:22;;;;;;;9.90;6.63;;;30.60;99.90;;;;;;5052527;28;20064;-74
2022/01/26 05:28:49;;;;;;;10.40;7.03;;;30.60;99.80;;;;;;5052201;28;20052;-73
2022/01/26 05:31:16;;;;;;;12.40;7.10;;;30.60;98.20;;;;;;5049986;28;20048;-74
2022/01/26 05:33:43;;;;;;;10.18;6.47;;;30.50;99.90;;;;;;5084381;22;20048;-75
2022/01/26 05:36:09;;;;;;;9.52;5.40;;;30.60;98.80;;;;;;5063560;28;20032;-74
2022/01/26 05:38:36;;;;;;;10.57;5.90;;;30.60;98.20;;;;;;5068514;28;20029;-73
2022/01/26 05:41:04;;;;;;;11.02;5.45;;;30.70;98.50;;;;;;5059984;28;20033;-76
2022/01/26 05:43:33;;;;;;;15.75;6.78;;;30.70;97.90;;;;;;5066340;28;20290;-76
2022/01/26 05:46:06;;;;;;;9.52;5.35;;;30.70;97.60;;;;;;5073610;28;20028;-77
2022/01/26 05:48:34;;;;;;;8.48;5.47;;;30.70;97.70;;;;;;5073572;28;20098;-74
2022/01/26 05:51:06;;;;;;;7.57;5.45;;;30.70;97.60;;;;;;5065622;28;20025;-75
2022/01/26 05:53:34;;;;;;;12.50;5.90;;;30.70;96.90;;;;;;5066065;28;20021;-77
2022/01/26 05:56:01;;;;;;;8.95;5.32;;;30.70;95.90;;;;;;5060008;28;20076;-74
2022/01/26 05:58:28;;;;;;;6.68;4.80;;;30.70;95.70;;;;;;5054188;28;20029;-73
2022/01/26 06:00:58;;;;;;;8.68;5.20;;;30.70;96.70;;;;;;5056287;28;20033;-73
2022/01/26 06:03:25;;;;;;;6.70;4.80;;;30.70;95.30;;;;;;5055475;28;20359;-71
2022/01/26 06:05:54;;;;;;;8.30;5.53;;;30.70;96.40;;;;;;5056988;28;20057;-74
2022/01/26 06:08:22;;;;;;;15.68;5.70;;;30.70;96.30;;;;;;5056808;28;20021;-72
2022/01/26 06:10:50;;;;;;;7.88;4.68;;;30.80;96.00;;;;;;5051543;28;20025;-76
2022/01/26 06:13:17;;;;;;;7.60;5.10;;;30.70;94.60;;;;;;5055488;28;20079;-75
2022/01/26 06:15:44;;;;;;;7.60;4.95;;;30.60;95.00;;;;;;5054128;28;20060;-74
2022/01/26 06:18:11;;;;;;;10.90;6.07;;;30.60;95.10;;;;;;5057078;28;20021;-74
2022/01/26 06:20:38;;;;;;;9.82;5.50;;;30.50;95.00;;;;;;5036111;22;20137;-72
2022/01/26 06:23:06;;;;;;;11.93;5.57;;;30.60;95.00;;;;;;4986699;28;20460;-73
2022/01/26 06:25:33;;;;;;;8.25;5.30;;;30.50;94.70;;;;;;4995287;28;20019;-73
2022/01/26 06:28:05;;;;;;;9.93;5.30;;;30.50;95.00;;;;;;4996919;28;20018;-74
2022/01/26 06:30:32;;;;;;;11.18;5.32;;;30.60;95.90;;;;;;4985536;28;20031;-72
2022/01/26 06:32:58;;;;;;;9.52;6.07;;;30.60;95.70;;;;;;4981442;28;20432;-72
2022/01/26 06:35:26;;;;;;;8.07;5.57;;;30.60;95.50;;;;;;4977570;28;20023;-72
2022/01/26 06:37:53;;;;;;;10.25;5.80;;;30.70;94.60;;;;;;4987817;28;20023;-72
2022/01/26 06:40:20;;;;;;;9.45;5.65;;;30.70;95.40;;;;;;4985834;28;20018;-72
2022/01/26 06:42:57;;;;;;;12.27;9.23;;;30.70;95.50;;;;;;4985380;28;20026;-71
2022/01/26 06:45:31;;;;;;;7.53;5.82;;;30.70;95.10;;;;;;4992183;28;20030;-73
2022/01/26 06:50:36;;;;;;;7.20;6.13;;;30.70;94.60;;;;;;4985855;28;20027;-71
2022/01/26 06:53:03;;;;;;;6.90;5.88;;;30.50;94.30;;;;;;4987932;28;20050;-75
2022/01/26 06:55:30;;;;;;;12.00;6.40;;;30.60;94.60;;;;;;4986225;28;20019;-74
2022/01/26 06:57:56;;;;;;;24.48;18.60;;;30.60;95.30;;;;;;4990380;28;20030;-73
2022/01/26 07:00:23;;;;;;;22.50;20.17;;;30.60;95.40;;;;;;4988567;28;20018;-73
2022/01/26 07:02:49;;;;;;;18.20;13.32;;;30.70;94.90;;;;;;4984388;28;20268;-74
2022/01/26 07:05:16;;;;;;;12.00;9.07;;;30.70;95.00;;;;;;4985146;28;20034;-73
2022/01/26 07:07:42;;;;;;;14.63;10.27;;;30.70;94.80;;;;;;4986589;28;20104;-73
2022/01/26 07:10:09;;;;;;;10.73;8.20;;;30.70;94.90;;;;;;4985478;28;20034;-71
2022/01/26 07:12:37;;;;;;;19.90;11.48;;;30.70;95.00;;;;;;4991305;28;20030;-70
2022/01/26 07:21:08;;;;;;;11.73;7.50;;;30.80;95.00;;;;;;4994575;28;20057;-72
2022/01/26 07:23:07;;;;;;;10.38;7.75;;;30.80;93.70;;;;;;4991951;28;20019;-69
2022/01/26 07:25:34;;;;;;;11.57;8.38;;;30.90;94.40;;;;;;4995768;28;20026;-69
2022/01/26 07:28:03;;;;;;;9.75;8.05;;;31.00;94.70;;;;;;4994974;28;20065;-69
2022/01/26 07:30:35;;;;;;;7.97;6.18;;;30.90;93.40;;;;;;4995030;28;20049;-70
2022/01/26 07:33:02;;;;;;;;;;;30.90;93.60;;;;;;4994859;28;20027;-69
2022/01/26 07:35:29;;;;;;;12.65;9.02;;;31.00;93.60;;;;;;4995287;28;19946;-70
2022/01/26 07:37:58;;;;;;;10.32;7.45;;;31.00;94.00;;;;;;4994316;28;20105;-69
2022/01/26 07:40:25;;;;;;;101.93;85.35;;;31.00;93.10;;;;;;4995448;28;20026;-68
2022/01/26 07:42:52;;;;;;;160.95;114.78;;;31.10;94.10;;;;;;4994254;28;20153;-70
2022/01/26 07:45:19;;;;;;;35.47;26.75;;;31.20;93.40;;;;;;4995074;28;20030;-71
2022/01/26 07:47:47;;;;;;;10.70;8.73;;;31.30;94.20;;;;;;4994002;28;20022;-74
2022/01/26 07:50:15;;;;;;;12.90;8.70;;;31.20;93.20;;;;;;4995327;28;20362;-73
2022/01/26 07:52:43;;;;;;;9.07;6.97;;;31.30;93.20;;;;;;4995253;28;20038;-74
2022/01/26 07:55:14;;;;;;;11.35;7.85;;;31.30;92.40;;;;;;4994112;28;20118;-74
2022/01/26 07:57:43;;;;;;;34.08;23.60;;;31.30;93.50;;;;;;4990405;22;20058;-73
2022/01/26 08:00:11;;;;;;;20.38;13.27;;;31.40;93.20;;;;;;5012833;28;20338;-75
2022/01/26 08:02:38;;;;;;;11.73;8.98;;;31.40;92.70;;;;;;5011801;28;20045;-73
2022/01/26 08:05:05;;;;;;;10.98;7.93;;;31.60;93.20;;;;;;5010887;28;20021;-74
2022/01/26 08:07:32;;;;;;;13.23;8.52;;;31.60;92.10;;;;;;5010256;28;20029;-74
2022/01/26 08:09:59;;;;;;;10.95;8.02;;;31.60;92.10;;;;;;5009659;28;20040;-73
2022/01/26 08:12:25;;;;;;;35.78;26.42;;;31.70;92.00;;;;;;5014415;28;20282;-73
2022/01/26 08:14:52;;;;;;;13.50;8.52;;;31.70;92.40;;;;;;5014392;28;20058;-75
2022/01/26 08:17:19;;;;;;;10.93;7.50;;;31.90;91.70;;;;;;5015363;28;20026;-73
2022/01/26 08:19:45;;;;;;;10.48;8.73;;;31.90;91.50;;;;;;5013671;28;20068;-73
2022/01/26 08:22:18;;;;;;;14.55;9.35;;;31.80;92.00;;;;;;5016575;28;20017;-74
2022/01/26 08:24:45;;;;;;;17.48;10.32;;;31.80;91.30;;;;;;5008768;28;20033;-73
2022/01/26 08:27:14;;;;;;;13.48;9.32;;;31.80;91.00;;;;;;5000935;28;20052;-73
2022/01/26 08:29:49;;;;;;;64.57;48.92;;;31.90;91.30;;;;;;5004245;28;20223;-73
2022/01/26 08:32:16;;;;;;;40.08;29.25;;;31.90;91.50;;;;;;5011085;28;20479;-73
2022/01/26 08:34:43;;;;;;;54.75;45.50;;;31.90;90.80;;;;;;5010678;28;20025;-75
2022/01/26 08:37:10;;;;;;;17.52;15.07;;;32.00;91.20;;;;;;5011404;28;20287;-76
2022/01/26 08:39:37;;;;;;;10.73;9.40;;;32.00;90.80;;;;;;5013304;28;20010;-76
2022/01/26 08:42:08;;;;;;;13.65;12.15;;;31.90;90.00;;;;;;5013469;28;20101;-71
2022/01/26 08:44:36;;;;;;;15.55;11.60;;;31.90;91.00;;;;;;5011413;28;20070;-76
2022/01/26 08:47:04;;;;;;;17.90;12.90;;;32.00;91.20;;;;;;5013615;28;20533;-73
2022/01/26 08:49:31;;;;;;;15.20;11.70;;;31.90;91.10;;;;;;5013107;28;20021;-74
2022/01/26 08:51:58;;;;;;;19.52;12.07;;;32.00;91.10;;;;;;5028194;28;20506;-74
2022/01/26 08:54:25;;;;;;;16.00;10.68;;;32.10;91.40;;;;;;5022050;28;20022;-72
2022/01/26 08:56:53;;;;;;;16.60;11.25;;;32.10;90.60;;;;;;5014110;28;20048;-76
2022/01/26 08:59:22;;;;;;;51.42;39.70;;;32.10;90.40;;;;;;5014145;28;20105;-74
2022/01/26 09:01:49;;;;;;;24.58;13.98;;;32.20;91.30;;;;;;5013625;28;20026;-72
2022/01/26 09:04:16;;;;;;;16.45;12.75;;;32.20;90.60;;;;;;5013713;28;20079;-74
2022/01/26 09:09:22;;;;;;;18.13;15.00;;;32.10;90.40;;;;;;5022736;28;20028;-75
2022/01/26 09:11:50;;;;;;;18.80;14.32;;;32.10;90.10;;;;;;5013698;28;20026;-73
2022/01/26 09:14:20;;;;;;;16.08;11.52;;;32.00;90.70;;;;;;5023719;28;20034;-73
2022/01/26 09:16:50;;;;;;;16.40;12.40;;;32.10;90.60;;;;;;5018481;28;20014;-75
2022/01/26 09:19:28;;;;;;;19.60;12.85;;;32.20;91.30;;;;;;5019120;28;20108;-73
2022/01/26 09:21:56;;;;;;;20.13;14.07;;;32.20;90.70;;;;;;5013397;28;20120;-72
2022/01/26 09:24:25;;;;;;;15.77;11.55;;;32.20;90.80;;;;;;5012823;28;20108;-74
2022/01/26 09:26:52;;;;;;;26.55;18.15;;;32.20;91.40;;;;;;5013074;28;20049;-72
2022/01/26 09:29:18;;;;;;;20.88;15.35;;;32.10;91.20;;;;;;5012065;28;20038;-72
2022/01/26 09:31:47;;;;;;;33.55;24.23;;;32.00;91.50;;;;;;5013982;28;20014;-73
2022/01/26 09:34:16;;;;;;;29.70;21.65;;;32.00;91.50;;;;;;5016635;28;20022;-72
2022/01/26 09:36:43;;;;;;;32.80;21.85;;;32.10;92.10;;;;;;5015357;28;20379;-70
2022/01/26 09:39:10;;;;;;;21.10;15.63;;;32.20;91.70;;;;;;5012876;28;20026;-71
2022/01/26 09:41:37;;;;;;;34.03;18.85;;;32.00;91.40;;;;;;5016578;28;20390;-74
2022/01/26 09:44:04;;;;;;;38.95;27.92;;;31.90;92.10;;;;;;5016898;28;20425;-74
2022/01/26 09:46:31;;;;;;;29.35;21.10;;;31.90;92.40;;;;;;5031492;28;20010;-74
2022/01/26 09:48:58;;;;;;;50.88;36.20;;;31.80;91.60;;;;;;5020452;28;20022;-74
2022/01/26 09:51:25;;;;;;;36.97;26.77;;;31.60;92.50;;;;;;5016756;28;20022;-71
2022/01/26 09:54:09;;;;;;;32.90;21.20;;;31.50;93.10;;;;;;5016513;28;20513;-69
2022/01/26 09:56:35;;;;;;;27.42;17.02;;;31.40;92.80;;;;;;5016266;28;20045;-70
2022/01/26 09:59:02;;;;;;;25.80;18.90;;;31.40;93.50;;;;;;5016308;28;20068;-71
2022/01/26 10:01:40;;;;;;;39.38;26.55;;;31.30;93.40;;;;;;5016763;28;20022;-70
2022/01/26 10:04:18;;;;;;;61.33;42.08;;;31.30;93.80;;;;;;5012837;28;20030;-70
2022/01/26 10:06:48;;;;;;;50.15;33.10;;;31.20;93.50;;;;;;5014797;28;20065;-73
2022/01/26 10:19:55;;;;;;;81.32;58.75;;;31.00;94.30;;;;;;4996401;28;20036;-72
2022/01/26 10:22:28;;;;;;;62.08;47.60;;;31.00;94.20;;;;;;4996557;28;20019;-72
2022/01/26 10:25:03;;;;;;;99.95;79.35;;;30.90;94.60;;;;;;5014348;28;20029;-69
2022/01/26 10:27:37;;;;;;;87.88;59.55;;;30.80;94.40;;;;;;5016154;28;20021;-73
2022/01/26 10:30:06;;;;;;;58.30;41.42;;;30.70;94.50;;;;;;5015709;28;20426;-74
2022/01/26 10:32:36;;;;;;;82.25;54.20;;;30.70;94.70;;;;;;5016060;28;20049;-70
2022/01/26 10:35:05;;;;;;;47.63;30.88;;;30.70;95.10;;;;;;5016426;28;20029;-71
2022/01/26 10:37:33;;;;;;;45.15;32.42;;;30.60;94.70;;;;;;5016733;28;20379;-70
2022/01/26 10:40:09;;;;;;;51.13;35.72;;;30.60;95.50;;;;;;5016415;28;20176;-72
2022/01/26 10:42:35;;;;;;;57.72;35.22;;;30.60;95.30;;;;;;5015774;28;20026;-71
2022/01/26 10:45:13;;;;;;;86.45;54.47;;;30.60;95.30;;;;;;5015900;28;20032;-67
2022/01/26 10:47:46;;;;;;;84.57;49.60;;;30.60;95.70;;;;;;5016402;28;20026;-67
2022/01/26 10:53:09;;;;;;;65.65;41.08;;;30.60;95.80;;;;;;5016042;28;20037;-67
2022/01/26 10:55:37;;;;;;;78.80;43.67;;;30.60;96.20;;;;;;5016135;28;20359;-66
2022/01/26 10:58:04;;;;;;;80.18;44.53;;;30.40;95.90;;;;;;5015557;28;20061;-67
2022/01/26 11:00:36;;;;;;;67.13;37.95;;;30.30;96.20;;;;;;5016222;28;20029;-66
2022/01/26 11:03:03;;;;;;;78.53;41.90;;;30.30;96.60;;;;;;5016056;28;20606;-67
2022/01/26 11:05:30;;;;;;;80.75;42.40;;;30.30;97.10;;;;;;5015681;28;20479;-67
2022/01/26 11:07:59;;;;;;;81.97;42.95;;;30.30;96.90;;;;;;5016134;28;20076;-67
2022/01/26 11:10:33;;;;;;;110.03;59.58;;;30.30;97.20;;;;;;5016163;28;20037;-67
2022/01/26 11:13:00;;;;;;;97.93;55.08;;;30.30;97.30;;;;;;5015802;28;20040;-69
2022/01/26 11:15:28;;;;;;;94.43;56.00;;;30.30;97.20;;;;;;5016709;28;20033;-68
2022/01/26 11:18:10;;;;;;;117.82;68.68;;;30.30;97.50;;;;;;5016217;28;20502;-68
2022/01/26 11:20:52;;;;;;;162.68;95.95;;;30.30;97.80;;;;;;5016032;28;20030;-67
2022/01/26 11:23:34;;;;;;;130.30;74.25;;;30.20;97.80;;;;;;5015564;28;20360;-67
2022/01/26 11:26:01;;;;;;;116.72;68.25;;;30.10;97.60;;;;;;5015773;28;20026;-67
2022/01/26 11:28:29;;;;;;;79.97;45.60;;;30.10;98.30;;;;;;5015549;28;20487;-66
2022/01/26 11:31:03;;;;;;;90.07;51.30;;;30.10;98.20;;;;;;5015690;28;20076;-67
2022/01/26 11:33:34;;;;;;;97.22;59.95;;;30.10;98.50;;;;;;5015241;28;20589;-69
2022/01/26 11:36:01;;;;;;;94.13;54.55;;;30.10;98.20;;;;;;5015405;28;20471;-66
2022/01/26 11:46:21;;;;;;;93.88;51.80;;;30.00;99.30;;;;;;5075234;28;20496;-68
2022/01/26 11:48:58;;;;;;;117.43;66.20;;;30.00;99.50;;;;;;5074715;28;20032;-73
2022/01/26 11:51:24;;;;;;;112.10;66.97;;;30.00;99.40;;;;;;5074888;28;20025;-69
2022/01/26 11:53:51;;;;;;;121.97;66.47;;;30.00;99.90;;;;;;5074072;28;20032;-68
2022/01/26 11:56:21;;;;;;;129.15;68.15;;;30.00;99.90;;;;;;5074273;28;20489;-69
2022/01/26 11:58:50;;;;;;;146.48;73.13;;;30.00;99.90;;;;;;5074416;28;20032;-69
2022/01/26 12:03:57;;;;;;;163.10;80.15;;;30.00;99.90;;;;;;5074439;28;20074;-69
2022/01/26 12:06:30;;;;;;;162.98;82.28;;;30.00;99.90;;;;;;5063643;28;20025;-69
2022/01/26 12:08:59;;;;;;;155.25;77.55;;;30.00;99.90;;;;;;5073780;28;20358;-68
2022/01/26 12:11:29;;;;;;;155.02;81.93;;;30.00;99.90;;;;;;5073252;28;20029;-67
2022/01/26 12:13:59;;;;;;;163.43;84.85;;;30.00;99.90;;;;;;5054555;28;20036;-69
2022/01/26 12:16:33;;;;;;;163.07;86.55;;;30.10;99.90;;;;;;5054454;28;20068;-68
2022/01/26 12:32:37;;;;;;;102.95;51.25;;;29.80;99.90;;;;;;5064951;28;20028;-69
2022/01/26 12:35:20;;;;;;;76.30;41.03;;;29.70;99.90;;;;;;5072080;28;20151;-70
2022/01/26 12:38:02;;;;;;;85.30;40.10;;;29.60;99.90;;;;;;5072656;28;20032;-69
2022/01/26 12:43:16;;;;;;;93.93;49.08;;;29.60;99.90;;;;;;5073468;28;20082;-70
2022/01/26 12:45:45;;;;;;;106.85;51.10;;;29.60;99.90;;;;;;5074074;28;20036;-69
2022/01/26 12:48:13;;;;;;;87.25;48.90;;;29.60;99.90;;;;;;5074013;28;20056;-70
2022/01/26 12:50:40;;;;;;;86.15;50.17;;;29.60;99.90;;;;;;5074147;28;20103;-69
2022/01/26 12:53:08;;;;;;;91.57;49.67;;;29.60;99.90;;;;;;5073952;28;20108;-69
2022/01/26 12:55:37;;;;;;;92.28;51.65;;;29.60;99.90;;;;;;5073322;28;20032;-74
2022/01/26 12:58:05;;;;;;;106.72;52.10;;;29.60;99.90;;;;;;5072750;28;20027;-71
2022/01/26 13:00:43;;;;;;;93.00;49.05;;;29.60;99.90;;;;;;5064346;28;20131;-71
2022/01/26 13:03:13;;;;;;;85.72;49.63;;;29.60;99.90;;;;;;5067145;28;20070;-70
2022/01/26 13:05:41;;;;;;;92.72;49.92;;;29.60;99.90;;;;;;5065363;28;20031;-69
2022/01/26 13:08:10;;;;;;;177.07;123.95;;;29.70;99.90;;;;;;5059747;28;20025;-69
2022/01/26 13:10:38;;;;;;;156.88;108.40;;;29.60;99.90;;;;;;5054663;28;20043;-70
2022/01/26 13:13:19;;;;;;;512.13;380.50;;;29.60;99.90;;;;;;5064403;28;20029;-71
2022/01/26 13:15:56;;;;;;;616.75;433.10;;;29.60;99.90;;;;;;5068864;28;20077;-70
2022/01/26 13:18:57;;;;;;;285.65;159.23;;;29.50;99.90;;;;;;5053405;28;20033;-70
2022/01/26 13:21:39;;;;;;;194.82;114.70;;;29.50;99.90;;;;;;5054106;28;20106;-71
2022/01/26 13:26:56;;;;;;;175.70;101.88;;;29.60;99.90;;;;;;5073485;28;20024;-71
2022/01/26 13:29:41;;;;;;;162.35;99.70;;;29.50;99.90;;;;;;5071432;28;20032;-71
2022/01/26 13:37:34;;;;;;;240.80;155.20;;;29.50;99.90;;;;;;5073090;28;20024;-71
2022/01/26 13:53:07;;;;;;;369.30;238.85;;;29.40;99.90;;;;;;5060416;28;20021;-70
2022/01/26 13:55:47;;;;;;;190.48;120.78;;;29.40;99.90;;;;;;5073620;28;20016;-69
2022/01/26 14:00:58;;;;;;;113.35;68.57;;;29.30;99.90;;;;;;5067835;28;20186;-70
2022/01/26 14:03:28;;;;;;;108.43;65.68;;;29.30;99.90;;;;;;5063615;28;20082;-71
2022/01/26 14:05:55;;;;;;;133.13;78.03;;;29.40;99.90;;;;;;5073549;28;20029;-71
2022/01/26 14:08:22;;;;;;;125.13;77.63;;;29.30;99.90;;;;;;5073784;28;20033;-70
2022/01/26 14:10:49;;;;;;;116.55;70.82;;;29.20;99.90;;;;;;5073777;28;20031;-70
2022/01/26 14:13:21;;;;;;;119.78;69.80;;;29.20;99.90;;;;;;5072955;28;20027;-70
2022/01/26 14:15:51;;;;;;;;;;;29.20;99.90;;;;;;5074330;28;20029;-70
2022/01/26 14:20:52;;;;;;;92.65;56.08;;;29.20;99.90;;;;;;5078922;22;20532;-69
2022/01/26 14:25:49;;;;;;;70.45;46.20;;;29.20;99.90;;;;;;5057383;28;20017;-70
2022/01/26 14:28:19;;;;;;;70.40;44.58;;;29.20;99.90;;;;;;5076739;22;20045;-70
2022/01/26 15:31:32;;;;;;;137.25;74.00;;;28.90;99.90;;;;;;5059369;28;20116;-68
2022/01/26 15:34:03;;;;;;;176.00;96.60;;;28.90;99.90;;;;;;5062677;28;20490;-66
2022/01/26 15:44:26;;;;;;;65.65;42.78;;;28.70;99.90;;;;;;5051250;28;20025;-70
2022/01/26 15:49:48;;;;;;;109.65;85.97;;;28.70;99.90;;;;;;5054347;28;20021;-73
2022/01/26 15:52:38;;;;;;;121.68;85.82;;;28.70;99.90;;;;;;5051422;28;20028;-71
2022/01/26 16:08:06;;;;;;;124.38;79.00;;;28.70;99.90;;;;;;5054991;28;20029;-72
2022/01/26 17:43:15;;;;;;;42.63;27.08;;;28.10;99.90;;;;;;5053578;28;20029;-68
2022/01/26 18:04:09;;;;;;;35.80;25.95;;;27.90;99.90;;;;;;5052750;28;20064;-67
2022/01/26 18:33:19;;;;;;;70.32;49.95;;;27.70;99.90;;;;;;5046410;28;20053;-66
2022/01/26 18:51:25;;;;;;;107.18;82.65;;;27.60;99.90;;;;;;5045078;28;20030;-66
2022/01/26 18:53:51;;;;;;;111.43;82.22;;;27.60;99.90;;;;;;5045957;28;20108;-67
2022/01/26 18:56:18;;;;;;;100.03;74.88;;;27.60;99.90;;;;;;5047089;28;20052;-66
2022/01/26 18:58:45;;;;;;;91.70;70.32;;;27.60;99.90;;;;;;5045210;28;20025;-66
2022/01/26 19:01:11;;;;;;;86.30;66.75;;;27.60;99.90;;;;;;5046478;28;20032;-66
2022/01/26 19:03:38;;;;;;;84.40;66.07;;;27.50;99.90;;;;;;5047028;28;20032;-68
2022/01/26 19:06:05;;;;;;;83.28;63.35;;;27.50;99.90;;;;;;5045257;28;20076;-68
2022/01/26 19:08:32;;;;;;;84.00;63.25;;;27.50;99.90;;;;;;5046450;28;20395;-67
2022/01/26 19:10:59;;;;;;;76.70;59.13;;;27.50;99.90;;;;;;5053754;28;20035;-67
2022/01/26 19:13:29;;;;;;;80.43;61.22;;;27.50;99.90;;;;;;5055827;28;20064;-67
2022/01/26 19:16:02;;;;;;;81.25;64.47;;;27.40;99.90;;;;;;5055322;28;20025;-67
2022/01/26 19:18:48;;;;;;;79.63;65.57;;;27.40;99.90;;;;;;5055527;28;20389;-68